Terminal Aerodrome Forecast
Issued by NWS

Home | Current Version | Previous Version | Text Only | Print | Product List | Glossary On
Versions: 1 2 3 4 5 6 7 8 9 10 11 12 13 14 15 16 17 18 19 20 21 22 23 24
136
FTAK31 PANC 280530
TAFAAQ
TAF
PAAQ 280530Z 2806/2906 00000KT P6SM OVC070
     FM280900 VRB03KT P6SM SCT070 BKN120
     FM282200 VRB03KT P6SM -SN SCT020 BKN040
     FM290400 VRB03KT 4SM -SN SCT015 BKN030=

USA.gov is the U.S. government's official web portal to all federal, state and local government web resources and services.